Time;durP1;ratioP1;P1;durP2;ratioP2;P2;SDS_P1;SDS_P2;PMS_P1;PMS_P2;Temp;Humidity;BMP_temperature;BMP_pressure;BME280_temperature;BME280_humidity;BME280_pressure;Samples;Min_cycle;Max_cycle;Signal;HPM_P1;HPM_P2
2023/01/30 00:02:17;;;;;;;15.13;9.38;;;;;;;;;;4989180;28;20030;-73
2023/01/30 00:04:43;;;;;;;15.68;9.75;;;;;;;;;;4974241;28;20027;-74
2023/01/30 00:07:09;;;;;;;13.90;9.27;;;;;;;;;;4974062;28;20031;-73
2023/01/30 00:09:35;;;;;;;16.63;9.88;;;;;;;;;;4974843;28;20027;-74
2023/01/30 00:12:01;;;;;;;12.82;8.95;;;;;;;;;;4976114;28;20050;-73
2023/01/30 00:14:27;;;;;;;14.23;8.82;;;;;;;;;;4977813;28;20409;-74
2023/01/30 00:16:53;;;;;;;12.18;8.48;;;;;;;;;;4977548;28;20035;-75
2023/01/30 00:19:19;;;;;;;17.40;10.38;;;;;;;;;;4980404;28;20158;-72
2023/01/30 00:21:45;;;;;;;13.73;9.52;;;;;;;;;;4984524;28;20033;-72
2023/01/30 00:24:10;;;;;;;16.35;10.75;;;;;;;;;;4986083;28;20049;-72
2023/01/30 00:26:43;;;;;;;17.33;9.15;;;;;;;;;;4982920;28;20042;-74
2023/01/30 00:29:09;;;;;;;14.05;8.45;;;;;;;;;;4973374;28;20066;-74
2023/01/30 00:31:35;;;;;;;14.05;8.77;;;;;;;;;;4973762;28;20030;-72
2023/01/30 00:34:01;;;;;;;16.73;10.48;;;;;;;;;;4973388;28;20034;-74
2023/01/30 00:36:27;;;;;;;15.05;10.13;;;;;;;;;;4973197;28;20046;-73
2023/01/30 00:38:53;;;;;;;14.90;8.77;;;;;;;;;;4973230;28;20046;-74
2023/01/30 00:41:19;;;;;;;21.77;12.35;;;;;;;;;;4973243;28;20555;-74
2023/01/30 00:47:16;;;;;;;14.30;8.85;;;;;;;;;;4973249;28;20054;-73
2023/01/30 00:49:17;;;;;;;14.10;9.32;;;;;;;;;;4975752;28;20039;-73
2023/01/30 00:51:43;;;;;;;14.35;9.77;;;;;;;;;;4973154;28;20110;-73
2023/01/30 00:54:09;;;;;;;13.18;8.75;;;;;;;;;;4955293;28;20034;-73
2023/01/30 00:56:35;;;;;;;17.50;9.68;;;;;;;;;;4953607;28;20031;-74
2023/01/30 00:59:01;;;;;;;13.93;8.43;;;;;;;;;;4953551;29;20391;-74
2023/01/30 01:01:27;;;;;;;16.00;9.93;;;;;;;;;;4953702;29;20175;-73
2023/01/30 01:03:53;;;;;;;16.95;10.25;;;;;;;;;;4953660;29;20023;-74
2023/01/30 01:06:19;;;;;;;18.90;10.30;;;;;;;;;;4952458;29;20031;-74
2023/01/30 01:08:45;;;;;;;14.55;9.65;;;;;;;;;;4953573;29;20402;-73
2023/01/30 01:11:22;;;;;;;14.40;10.05;;;;;;;;;;4953683;29;20054;-73
2023/01/30 01:13:49;;;;;;;18.77;10.02;;;;;;;;;;4953605;28;20110;-73
2023/01/30 01:16:15;;;;;;;13.50;8.85;;;;;;;;;;4952072;29;20037;-73
2023/01/30 01:18:41;;;;;;;14.30;8.55;;;;;;;;;;4953668;29;20023;-73
2023/01/30 01:21:07;;;;;;;15.10;9.82;;;;;;;;;;4953540;29;20034;-73
2023/01/30 01:23:33;;;;;;;15.32;10.00;;;;;;;;;;4953578;29;20023;-72
2023/01/30 01:26:02;;;;;;;18.75;10.55;;;;;;;;;;4953518;29;20078;-72
2023/01/30 01:28:28;;;;;;;15.82;8.98;;;;;;;;;;4951660;29;20045;-72
2023/01/30 01:30:54;;;;;;;17.13;10.23;;;;;;;;;;4953595;29;20110;-72
2023/01/30 01:33:20;;;;;;;14.70;9.90;;;;;;;;;;4953618;29;20097;-73
2023/01/30 01:35:46;;;;;;;15.85;9.20;;;;;;;;;;4953221;29;20090;-73
2023/01/30 01:38:12;;;;;;;14.35;9.82;;;;;;;;;;4953180;29;20023;-73
2023/01/30 01:43:24;;;;;;;15.73;9.55;;;;;;;;;;4954521;29;20082;-74
2023/01/30 01:45:53;;;;;;;17.35;10.77;;;;;;;;;;4953507;29;20035;-73
2023/01/30 01:48:22;;;;;;;15.45;10.30;;;;;;;;;;4954152;29;20403;-74
2023/01/30 01:50:47;;;;;;;13.65;9.43;;;;;;;;;;4953347;29;20027;-74
2023/01/30 01:53:15;;;;;;;14.77;9.13;;;;;;;;;;4963641;28;20030;-74
2023/01/30 01:55:43;;;;;;;14.70;9.95;;;;;;;;;;4972910;28;20113;-74
2023/01/30 01:58:15;;;;;;;15.80;9.73;;;;;;;;;;4972202;28;20097;-74
2023/01/30 02:00:41;;;;;;;16.60;10.38;;;;;;;;;;4972634;28;20085;-74
2023/01/30 02:03:12;;;;;;;16.85;10.52;;;;;;;;;;4972434;28;20034;-74
2023/01/30 02:05:40;;;;;;;15.52;9.93;;;;;;;;;;4972635;28;20050;-74
2023/01/30 02:08:08;;;;;;;17.08;10.88;;;;;;;;;;4972217;28;20110;-73
2023/01/30 02:10:53;;;;;;;16.40;10.43;;;;;;;;;;4976243;28;20102;-74
2023/01/30 02:13:20;;;;;;;15.57;9.95;;;;;;;;;;4976244;28;20081;-73
2023/01/30 02:15:45;;;;;;;16.75;10.20;;;;;;;;;;4976101;28;20063;-74
2023/01/30 02:18:12;;;;;;;17.23;10.55;;;;;;;;;;4975501;28;20453;-73
2023/01/30 02:20:49;;;;;;;19.13;11.48;;;;;;;;;;4976034;28;20035;-73
2023/01/30 02:23:34;;;;;;;17.92;10.73;;;;;;;;;;4975978;28;20449;-72
2023/01/30 02:26:20;;;;;;;17.25;11.13;;;;;;;;;;4976209;28;20030;-73
2023/01/30 02:29:05;;;;;;;15.45;9.32;;;;;;;;;;4975443;28;20113;-73
2023/01/30 02:31:34;;;;;;;16.50;10.48;;;;;;;;;;4975997;28;20039;-73
2023/01/30 02:34:09;;;;;;;18.35;11.10;;;;;;;;;;4975781;28;20169;-73
2023/01/30 02:36:35;;;;;;;15.63;9.48;;;;;;;;;;4975558;28;20031;-72
2023/01/30 02:39:05;;;;;;;17.15;9.95;;;;;;;;;;4975431;28;20065;-73
2023/01/30 02:41:31;;;;;;;13.43;8.73;;;;;;;;;;4975845;28;20081;-75
2023/01/30 02:44:05;;;;;;;16.05;9.95;;;;;;;;;;4975534;28;20035;-73
2023/01/30 02:46:40;;;;;;;14.75;9.68;;;;;;;;;;4975573;28;20022;-73
2023/01/30 02:49:29;;;;;;;16.10;10.98;;;;;;;;;;4975271;28;20544;-73
2023/01/30 02:51:56;;;;;;;14.45;8.85;;;;;;;;;;4968841;28;20489;-73
2023/01/30 02:54:22;;;;;;;16.33;9.98;;;;;;;;;;4990217;28;20478;-73
2023/01/30 02:56:51;;;;;;;13.35;9.25;;;;;;;;;;4975237;28;20030;-76
2023/01/30 02:59:19;;;;;;;14.68;9.13;;;;;;;;;;4975165;28;20035;-74
2023/01/30 03:02:04;;;;;;;14.10;9.23;;;;;;;;;;4975223;28;20022;-76
2023/01/30 03:04:41;;;;;;;13.48;8.57;;;;;;;;;;4975117;28;20063;-74
2023/01/30 03:07:26;;;;;;;15.23;8.95;;;;;;;;;;4974731;28;20413;-73
2023/01/30 03:09:55;;;;;;;12.30;8.77;;;;;;;;;;4974977;28;20029;-75
2023/01/30 03:12:21;;;;;;;12.68;8.93;;;;;;;;;;4974940;28;20501;-75
2023/01/30 03:15:02;;;;;;;12.75;8.98;;;;;;;;;;4974988;28;20098;-75
2023/01/30 03:17:28;;;;;;;;;;;;;;;;;;4974998;28;20110;-75
2023/01/30 03:19:55;;;;;;;17.42;8.35;;;;;;;;;;4974065;28;20344;-75
2023/01/30 03:22:21;;;;;;;13.27;9.07;;;;;;;;;;4974344;28;20019;-75
2023/01/30 03:24:48;;;;;;;13.30;8.90;;;;;;;;;;4974675;28;20019;-75
2023/01/30 03:27:14;;;;;;;14.65;9.13;;;;;;;;;;4974103;28;20054;-74
2023/01/30 03:29:40;;;;;;;13.05;8.52;;;;;;;;;;4974792;28;20102;-75
2023/01/30 03:32:07;;;;;;;13.55;9.13;;;;;;;;;;4974617;28;20150;-75
2023/01/30 03:34:33;;;;;;;12.75;8.40;;;;;;;;;;4974620;28;20081;-76
2023/01/30 03:36:59;;;;;;;13.18;8.15;;;;;;;;;;4972981;28;20027;-73
2023/01/30 03:39:25;;;;;;;15.25;8.77;;;;;;;;;;4974386;28;20027;-75
2023/01/30 03:41:51;;;;;;;12.52;7.60;;;;;;;;;;4973050;28;20367;-75
2023/01/30 03:44:17;;;;;;;11.23;7.80;;;;;;;;;;4974581;28;20049;-75
2023/01/30 03:46:43;;;;;;;15.98;8.15;;;;;;;;;;4974344;28;20541;-76
2023/01/30 03:49:09;;;;;;;14.88;8.68;;;;;;;;;;4974191;28;20110;-76
2023/01/30 03:51:35;;;;;;;11.27;7.30;;;;;;;;;;4974212;28;20113;-75
2023/01/30 03:54:01;;;;;;;15.32;9.05;;;;;;;;;;4974092;28;20085;-75
2023/01/30 03:56:28;;;;;;;12.38;8.05;;;;;;;;;;4974103;28;20266;-75
2023/01/30 03:58:54;;;;;;;13.30;8.32;;;;;;;;;;4973910;28;20058;-75
2023/01/30 04:01:20;;;;;;;11.48;7.57;;;;;;;;;;4974429;28;20062;-74
2023/01/30 04:03:46;;;;;;;14.57;7.95;;;;;;;;;;4974304;28;20344;-75
2023/01/30 04:06:12;;;;;;;11.93;7.80;;;;;;;;;;4974214;28;20029;-76
2023/01/30 04:08:38;;;;;;;13.90;7.85;;;;;;;;;;4973466;28;20029;-76
2023/01/30 04:11:04;;;;;;;12.35;7.70;;;;;;;;;;4973901;28;20027;-75
2023/01/30 04:13:30;;;;;;;15.80;8.60;;;;;;;;;;4973932;28;20031;-76
2023/01/30 04:16:15;;;;;;;13.38;7.85;;;;;;;;;;4973855;28;20073;-76
2023/01/30 04:18:41;;;;;;;12.95;8.50;;;;;;;;;;4973655;28;20026;-75
2023/01/30 04:21:07;;;;;;;11.48;7.72;;;;;;;;;;4973910;28;20026;-76
2023/01/30 04:23:33;;;;;;;12.13;8.10;;;;;;;;;;4973786;28;20027;-76
2023/01/30 04:25:59;;;;;;;11.73;7.63;;;;;;;;;;4973999;28;20027;-75
2023/01/30 04:28:25;;;;;;;11.32;7.55;;;;;;;;;;4988341;28;20483;-76
2023/01/30 04:30:52;;;;;;;10.60;7.40;;;;;;;;;;4975571;28;20023;-76
2023/01/30 04:33:18;;;;;;;13.90;8.23;;;;;;;;;;4975819;28;20178;-75
2023/01/30 04:35:57;;;;;;;11.82;7.57;;;;;;;;;;4973611;28;20529;-75
2023/01/30 04:38:23;;;;;;;9.68;7.07;;;;;;;;;;4973034;28;20022;-75
2023/01/30 04:40:50;;;;;;;12.73;8.20;;;;;;;;;;4973562;28;20042;-75
2023/01/30 04:43:16;;;;;;;12.32;7.90;;;;;;;;;;4973442;28;20556;-75
2023/01/30 04:45:45;;;;;;;11.90;7.88;;;;;;;;;;4973406;28;20070;-75
2023/01/30 04:48:12;;;;;;;11.20;7.43;;;;;;;;;;4973156;28;20107;-75
2023/01/30 04:50:39;;;;;;;11.73;7.53;;;;;;;;;;4973117;28;20097;-75
2023/01/30 04:53:05;;;;;;;13.52;7.95;;;;;;;;;;4963977;28;20036;-75
2023/01/30 04:55:31;;;;;;;14.30;8.50;;;;;;;;;;4952588;29;20106;-75
2023/01/30 04:57:57;;;;;;;12.52;7.60;;;;;;;;;;4953611;29;20031;-75
2023/01/30 05:00:23;;;;;;;13.60;8.88;;;;;;;;;;4953688;29;20023;-75
2023/01/30 05:02:49;;;;;;;12.05;8.45;;;;;;;;;;4952458;29;20015;-75
2023/01/30 05:05:15;;;;;;;11.77;7.72;;;;;;;;;;4952491;29;20031;-74
2023/01/30 05:07:41;;;;;;;12.98;7.97;;;;;;;;;;4953482;29;20043;-74
2023/01/30 05:10:07;;;;;;;12.10;7.55;;;;;;;;;;4953769;29;20035;-74
2023/01/30 05:12:36;;;;;;;12.15;7.78;;;;;;;;;;4954042;29;20418;-74
2023/01/30 05:15:02;;;;;;;14.40;8.52;;;;;;;;;;4952194;29;20030;-74
2023/01/30 05:17:28;;;;;;;11.38;8.00;;;;;;;;;;4953502;29;20023;-75
2023/01/30 05:19:54;;;;;;;11.40;7.90;;;;;;;;;;4953996;29;20081;-74
2023/01/30 05:22:20;;;;;;;11.05;7.55;;;;;;;;;;4957410;29;20366;-75
2023/01/30 05:24:46;;;;;;;15.70;7.75;;;;;;;;;;4971650;29;20141;-76
2023/01/30 05:27:12;;;;;;;11.00;7.80;;;;;;;;;;4971037;29;20036;-75
2023/01/30 05:29:38;;;;;;;11.70;7.90;;;;;;;;;;4969045;29;20039;-77
2023/01/30 05:32:04;;;;;;;10.73;7.18;;;;;;;;;;4953757;29;20406;-75
2023/01/30 05:34:30;;;;;;;13.07;7.57;;;;;;;;;;4954161;29;20030;-74
2023/01/30 05:36:56;;;;;;;12.27;7.70;;;;;;;;;;4953393;29;20110;-74
2023/01/30 05:39:22;;;;;;;12.30;8.52;;;;;;;;;;4953530;29;20111;-74
2023/01/30 05:41:48;;;;;;;12.32;8.13;;;;;;;;;;4953499;29;20075;-74
2023/01/30 05:44:14;;;;;;;13.52;8.32;;;;;;;;;;4954860;28;20430;-74
2023/01/30 05:46:40;;;;;;;15.68;8.90;;;;;;;;;;4957023;29;20030;-74
2023/01/30 05:49:06;;;;;;;11.70;7.65;;;;;;;;;;4957308;29;20028;-74
2023/01/30 05:51:33;;;;;;;10.82;7.53;;;;;;;;;;4957402;29;20027;-74
2023/01/30 05:53:59;;;;;;;10.75;7.45;;;;;;;;;;4974024;28;20038;-74
2023/01/30 05:56:25;;;;;;;11.73;8.25;;;;;;;;;;4976202;28;20296;-75
2023/01/30 05:58:55;;;;;;;14.77;7.65;;;;;;;;;;4976200;28;20018;-74
2023/01/30 06:01:21;;;;;;;14.25;7.28;;;;;;;;;;4976477;28;20027;-74
2023/01/30 06:03:47;;;;;;;11.02;8.07;;;;;;;;;;4976585;28;20023;-75
2023/01/30 06:06:13;;;;;;;10.63;8.25;;;;;;;;;;4991144;28;20084;-76
2023/01/30 06:08:39;;;;;;;11.48;7.63;;;;;;;;;;4976093;28;20031;-74
2023/01/30 06:11:07;;;;;;;12.00;8.20;;;;;;;;;;4991046;28;20027;-74
2023/01/30 06:13:33;;;;;;;10.52;7.47;;;;;;;;;;4976062;28;20026;-74
2023/01/30 06:16:00;;;;;;;11.18;7.15;;;;;;;;;;4976044;28;20378;-75
2023/01/30 06:18:26;;;;;;;12.00;7.10;;;;;;;;;;4975788;28;20446;-73
2023/01/30 06:20:52;;;;;;;10.68;7.63;;;;;;;;;;4976288;28;20027;-73
2023/01/30 06:23:19;;;;;;;12.20;8.32;;;;;;;;;;4976016;28;20023;-75
2023/01/30 06:25:48;;;;;;;10.27;7.28;;;;;;;;;;4976094;28;20158;-73
2023/01/30 06:28:15;;;;;;;11.70;8.32;;;;;;;;;;4976454;28;20031;-75
2023/01/30 06:30:41;;;;;;;14.63;8.48;;;;;;;;;;4975813;28;20031;-74
2023/01/30 06:33:07;;;;;;;11.82;7.60;;;;;;;;;;4976107;28;20088;-75
2023/01/30 06:35:33;;;;;;;9.98;7.05;;;;;;;;;;4990623;28;20026;-76
2023/01/30 06:37:59;;;;;;;10.68;7.47;;;;;;;;;;4975422;28;20089;-75
2023/01/30 06:40:25;;;;;;;11.82;7.82;;;;;;;;;;4975757;28;20081;-75
2023/01/30 06:42:51;;;;;;;10.73;7.60;;;;;;;;;;4975294;28;20027;-74
2023/01/30 06:45:18;;;;;;;10.60;7.47;;;;;;;;;;4975853;28;20085;-74
2023/01/30 06:47:45;;;;;;;12.85;7.70;;;;;;;;;;4975290;28;20386;-75
2023/01/30 06:50:11;;;;;;;11.73;7.45;;;;;;;;;;4975723;28;20023;-76
2023/01/30 06:52:44;;;;;;;10.07;7.53;;;;;;;;;;4984425;28;20512;-72
2023/01/30 06:55:11;;;;;;;9.52;7.25;;;;;;;;;;4966402;28;20025;-75
2023/01/30 06:57:37;;;;;;;12.45;8.15;;;;;;;;;;4988169;28;20026;-73
2023/01/30 07:00:07;;;;;;;12.15;8.10;;;;;;;;;;4973303;28;20027;-74
2023/01/30 07:02:34;;;;;;;12.88;8.63;;;;;;;;;;4974841;28;20045;-72
2023/01/30 07:05:04;;;;;;;13.80;9.57;;;;;;;;;;4989915;28;20027;-75
2023/01/30 07:07:30;;;;;;;14.30;10.32;;;;;;;;;;4974650;28;20023;-75
2023/01/30 07:09:56;;;;;;;15.13;9.73;;;;;;;;;;4976829;28;20118;-75
2023/01/30 07:12:23;;;;;;;14.10;9.65;;;;;;;;;;4977456;28;20038;-76
2023/01/30 07:14:49;;;;;;;17.85;10.77;;;;;;;;;;4977670;28;20046;-75
2023/01/30 07:17:16;;;;;;;15.77;10.10;;;;;;;;;;4976928;28;20394;-75
2023/01/30 07:19:43;;;;;;;13.85;10.32;;;;;;;;;;4976559;28;20522;-75
2023/01/30 07:22:09;;;;;;;15.15;10.55;;;;;;;;;;4975920;28;20030;-74
2023/01/30 07:24:35;;;;;;;15.55;10.70;;;;;;;;;;4976210;28;20097;-74
2023/01/30 07:27:01;;;;;;;12.63;8.77;;;;;;;;;;4976664;28;20449;-75
2023/01/30 07:29:27;;;;;;;14.35;9.77;;;;;;;;;;4977126;28;20066;-74
2023/01/30 07:31:53;;;;;;;11.75;8.35;;;;;;;;;;4976637;28;20048;-74
2023/01/30 07:34:19;;;;;;;14.10;8.77;;;;;;;;;;4976756;28;20023;-74
2023/01/30 07:36:45;;;;;;;11.32;8.13;;;;;;;;;;4978196;28;20077;-74
2023/01/30 07:39:11;;;;;;;11.07;8.27;;;;;;;;;;4978092;28;20106;-75
2023/01/30 07:41:37;;;;;;;12.63;8.75;;;;;;;;;;4994441;28;20031;-75
2023/01/30 07:44:03;;;;;;;11.27;7.88;;;;;;;;;;4978880;28;20029;-73
2023/01/30 07:46:33;;;;;;;14.73;7.85;;;;;;;;;;4978652;28;20026;-75
2023/01/30 07:49:00;;;;;;;12.10;8.55;;;;;;;;;;4979495;28;20019;-74
2023/01/30 07:51:26;;;;;;;10.10;6.72;;;;;;;;;;4986043;28;20053;-75
2023/01/30 07:53:52;;;;;;;10.15;6.43;;;;;;;;;;4964327;28;20038;-75
2023/01/30 07:56:20;;;;;;;9.52;6.82;;;;;;;;;;4958907;29;20114;-74
2023/01/30 07:58:46;;;;;;;11.75;6.78;;;;;;;;;;4973808;28;20457;-74
2023/01/30 08:01:12;;;;;;;9.48;6.38;;;;;;;;;;4957121;28;20035;-75
2023/01/30 08:03:38;;;;;;;11.32;7.43;;;;;;;;;;4954961;28;20047;-74
2023/01/30 08:06:05;;;;;;;9.10;6.35;;;;;;;;;;4954532;28;20151;-75
2023/01/30 08:08:33;;;;;;;10.07;6.45;;;;;;;;;;4965816;28;20077;-69
2023/01/30 08:10:59;;;;;;;12.63;6.60;;;;;;;;;;4983242;28;20030;-71
2023/01/30 08:13:25;;;;;;;11.27;6.57;;;;;;;;;;4974040;28;20026;-72
2023/01/30 08:15:51;;;;;;;11.48;6.85;;;;;;;;;;4975379;28;20556;-71
2023/01/30 08:18:17;;;;;;;9.63;6.57;;;;;;;;;;4964374;28;20034;-72
2023/01/30 08:20:43;;;;;;;10.88;6.63;;;;;;;;;;4952966;29;20030;-72
2023/01/30 08:23:09;;;;;;;12.02;6.90;;;;;;;;;;4954468;29;20114;-73
2023/01/30 08:25:35;;;;;;;11.63;7.80;;;;;;;;;;4954519;29;20036;-71
2023/01/30 08:28:02;;;;;;;11.23;7.30;;;;;;;;;;4973158;28;20513;-73
2023/01/30 08:30:29;;;;;;;12.93;7.40;;;;;;;;;;4973836;28;20122;-71
2023/01/30 08:32:55;;;;;;;12.27;7.60;;;;;;;;;;4974228;28;20566;-71
2023/01/30 08:35:21;;;;;;;11.88;7.28;;;;;;;;;;4973689;28;20501;-71
2023/01/30 08:37:47;;;;;;;10.95;6.93;;;;;;;;;;4973201;28;20096;-71
2023/01/30 08:40:13;;;;;;;8.88;5.78;;;;;;;;;;4973578;28;20054;-71
2023/01/30 08:42:39;;;;;;;8.27;5.88;;;;;;;;;;4973674;28;20026;-71
2023/01/30 08:45:06;;;;;;;9.15;6.03;;;;;;;;;;4954494;28;20433;-73
2023/01/30 08:47:34;;;;;;;7.55;5.28;;;;;;;;;;4953579;29;20037;-72
2023/01/30 08:50:00;;;;;;;8.82;5.40;;;;;;;;;;4954204;28;20023;-72
2023/01/30 08:52:26;;;;;;;10.07;5.10;;;;;;;;;;4954378;29;20061;-72
2023/01/30 08:54:52;;;;;;;6.30;4.88;;;;;;;;;;4954744;29;20031;-72
2023/01/30 08:57:18;;;;;;;6.30;4.00;;;;;;;;;;4953502;29;20032;-73
2023/01/30 08:59:44;;;;;;;4.68;3.45;;;;;;;;;;4953971;29;20030;-72
2023/01/30 09:02:11;;;;;;;4.43;3.35;;;;;;;;;;4953712;28;20032;-72
2023/01/30 09:04:37;;;;;;;7.05;4.03;;;;;;;;;;4953585;29;20414;-72
2023/01/30 09:07:03;;;;;;;5.68;3.45;;;;;;;;;;4953499;29;20054;-75
2023/01/30 09:09:29;;;;;;;3.92;3.33;;;;;;;;;;4953931;29;20102;-74
2023/01/30 09:11:55;;;;;;;4.18;3.17;;;;;;;;;;4953578;29;20055;-74
2023/01/30 09:14:21;;;;;;;5.15;3.50;;;;;;;;;;4954076;29;20035;-74
2023/01/30 09:16:54;;;;;;;3.65;3.25;;;;;;;;;;4953326;29;20042;-74
2023/01/30 09:19:20;;;;;;;4.35;3.42;;;;;;;;;;4953533;28;20023;-73
2023/01/30 09:21:48;;;;;;;4.43;3.60;;;;;;;;;;4968441;28;20031;-72
2023/01/30 09:24:14;;;;;;;4.40;3.22;;;;;;;;;;4953850;28;20019;-70
2023/01/30 09:26:43;;;;;;;13.93;6.97;;;;;;;;;;4953566;28;20054;-70
2023/01/30 09:29:09;;;;;;;4.55;3.25;;;;;;;;;;4953438;29;20023;-72
2023/01/30 09:31:35;;;;;;;12.82;7.70;;;;;;;;;;4953534;29;20039;-71
2023/01/30 09:34:01;;;;;;;6.18;4.60;;;;;;;;;;4953639;29;20031;-70
2023/01/30 09:36:27;;;;;;;4.47;3.20;;;;;;;;;;4953371;29;20032;-71
2023/01/30 09:38:53;;;;;;;14.95;7.72;;;;;;;;;;4953516;28;20015;-70
2023/01/30 09:41:22;;;;;;;4.57;2.85;;;;;;;;;;4968379;28;20027;-71
2023/01/30 09:43:55;;;;;;;45.92;22.77;;;;;;;;;;4953238;29;20375;-67
2023/01/30 09:46:27;;;;;;;13.20;6.95;;;;;;;;;;4953048;29;20401;-67
2023/01/30 09:48:53;;;;;;;9.00;5.13;;;;;;;;;;4952889;28;20042;-67
2023/01/30 09:51:25;;;;;;;11.00;5.05;;;;;;;;;;4953001;29;20019;-67
2023/01/30 09:54:03;;;;;;;4.00;3.28;;;;;;;;;;4953139;29;20339;-73
2023/01/30 09:56:29;;;;;;;4.22;2.67;;;;;;;;;;4953377;28;20394;-73
2023/01/30 09:58:56;;;;;;;4.03;3.42;;;;;;;;;;4953569;29;20019;-75
2023/01/30 10:01:34;;;;;;;3.05;2.67;;;;;;;;;;4954036;28;20181;-76
2023/01/30 10:04:06;;;;;;;4.25;2.97;;;;;;;;;;4954075;28;20042;-75
2023/01/30 10:06:36;;;;;;;4.95;3.13;;;;;;;;;;4952984;29;20421;-75
2023/01/30 10:09:09;;;;;;;4.32;3.05;;;;;;;;;;4952899;29;20051;-74
2023/01/30 10:11:53;;;;;;;3.33;2.50;;;;;;;;;;4953198;29;20054;-74
2023/01/30 10:14:38;;;;;;;2.30;2.10;;;;;;;;;;4967974;28;20034;-74
2023/01/30 10:17:04;;;;;;;3.00;2.30;;;;;;;;;;4969067;28;20027;-73
2023/01/30 10:19:44;;;;;;;2.83;2.17;;;;;;;;;;4970920;28;20106;-73
2023/01/30 10:22:19;;;;;;;2.67;2.13;;;;;;;;;;4972139;28;20438;-76
2023/01/30 10:24:58;;;;;;;2.70;1.90;;;;;;;;;;4972054;28;20093;-74
2023/01/30 10:27:25;;;;;;;2.33;1.88;;;;;;;;;;4971896;28;20038;-75
2023/01/30 10:29:55;;;;;;;2.55;2.00;;;;;;;;;;4972935;28;20035;-75
2023/01/30 10:32:29;;;;;;;2.30;1.90;;;;;;;;;;4987085;28;20034;-75
2023/01/30 10:34:57;;;;;;;2.83;2.17;;;;;;;;;;4989254;28;20031;-76
2023/01/30 10:37:36;;;;;;;2.30;2.10;;;;;;;;;;4988067;28;20126;-75
2023/01/30 10:40:05;;;;;;;2.97;2.05;;;;;;;;;;4976378;28;20019;-74
2023/01/30 10:42:36;;;;;;;3.20;2.03;;;;;;;;;;4975522;28;20022;-75
2023/01/30 10:45:10;;;;;;;2.67;2.05;;;;;;;;;;4976024;28;20027;-75
2023/01/30 10:47:54;;;;;;;2.13;1.73;;;;;;;;;;4975499;28;20022;-74
2023/01/30 10:50:25;;;;;;;3.20;2.17;;;;;;;;;;4975539;28;20503;-76
2023/01/30 10:53:01;;;;;;;2.47;2.10;;;;;;;;;;4975267;28;20068;-75
2023/01/30 10:55:42;;;;;;;2.92;2.10;;;;;;;;;;4973705;28;20031;-75
2023/01/30 10:58:08;;;;;;;;;;;;;;;;;;4982734;28;20038;-75
2023/01/30 11:00:38;;;;;;;2.15;1.77;;;;;;;;;;4954767;29;19977;-75
2023/01/30 11:03:09;;;;;;;2.55;1.50;;;;;;;;;;4953981;29;20020;-76
2023/01/30 11:05:57;;;;;;;2.88;2.00;;;;;;;;;;4954005;29;20367;-74
2023/01/30 11:08:32;;;;;;;2.10;1.67;;;;;;;;;;4953773;28;20035;-74
2023/01/30 11:10:58;;;;;;;2.35;2.13;;;;;;;;;;4953918;29;20024;-77
2023/01/30 11:13:31;;;;;;;2.45;1.88;;;;;;;;;;4954010;29;20042;-75
2023/01/30 11:16:04;;;;;;;2.45;2.17;;;;;;;;;;4955514;29;20103;-74
2023/01/30 11:18:30;;;;;;;3.00;1.92;;;;;;;;;;4968207;28;20030;-74
2023/01/30 11:21:04;;;;;;;2.42;1.90;;;;;;;;;;4975147;28;20115;-75
2023/01/30 11:23:35;;;;;;;3.63;1.83;;;;;;;;;;4975031;28;20023;-76
2023/01/30 11:26:02;;;;;;;2.47;1.87;;;;;;;;;;4975247;28;20023;-74
2023/01/30 11:28:33;;;;;;;3.05;1.90;;;;;;;;;;4974600;28;20035;-75
2023/01/30 11:31:00;;;;;;;3.45;2.08;;;;;;;;;;4975080;28;20035;-75
2023/01/30 11:33:33;;;;;;;2.33;2.03;;;;;;;;;;4975452;28;20035;-76
2023/01/30 11:36:01;;;;;;;3.63;2.30;;;;;;;;;;4990210;28;20019;-75
2023/01/30 11:38:29;;;;;;;3.20;2.72;;;;;;;;;;4974554;28;20113;-74
2023/01/30 11:41:21;;;;;;;2.60;2.22;;;;;;;;;;4974322;28;20042;-76
2023/01/30 11:43:48;;;;;;;2.80;2.15;;;;;;;;;;4974127;28;20094;-76
2023/01/30 11:46:17;;;;;;;2.58;2.17;;;;;;;;;;4975721;28;20027;-76
2023/01/30 11:48:46;;;;;;;3.08;1.95;;;;;;;;;;4974741;28;20027;-76
2023/01/30 11:51:12;;;;;;;3.25;2.30;;;;;;;;;;4989829;28;20122;-76
2023/01/30 11:53:40;;;;;;;5.75;2.70;;;;;;;;;;4989953;28;20030;-76
2023/01/30 11:56:17;;;;;;;3.90;2.92;;;;;;;;;;4974882;28;20026;-75
2023/01/30 11:58:46;;;;;;;2.55;2.17;;;;;;;;;;4989092;28;20486;-76
2023/01/30 12:01:15;;;;;;;3.10;2.50;;;;;;;;;;4974140;28;20035;-77
2023/01/30 12:03:45;;;;;;;3.75;2.17;;;;;;;;;;4974256;28;20034;-74
2023/01/30 12:06:11;;;;;;;3.72;2.33;;;;;;;;;;4973893;28;20409;-76
2023/01/30 12:08:38;;;;;;;3.90;2.17;;;;;;;;;;4974454;28;20401;-76
2023/01/30 12:11:06;;;;;;;2.78;2.47;;;;;;;;;;4989219;28;20157;-76
2023/01/30 12:13:41;;;;;;;3.33;2.22;;;;;;;;;;4988978;28;20037;-76
2023/01/30 12:16:22;;;;;;;3.70;2.35;;;;;;;;;;4973814;28;20075;-76
2023/01/30 12:19:00;;;;;;;2.75;2.38;;;;;;;;;;4973510;28;20556;-75
2023/01/30 12:21:31;;;;;;;4.18;2.30;;;;;;;;;;4973933;28;20023;-75
2023/01/30 12:23:57;;;;;;;3.08;2.22;;;;;;;;;;4974089;28;20042;-76
2023/01/30 12:26:30;;;;;;;4.65;2.03;;;;;;;;;;4987362;28;20026;-75
2023/01/30 12:29:01;;;;;;;2.80;2.22;;;;;;;;;;4994298;22;20043;-71
2023/01/30 12:31:34;;;;;;;4.03;2.90;;;;;;;;;;4971889;28;20030;-72
2023/01/30 12:34:01;;;;;;;2.90;2.15;;;;;;;;;;4973363;28;20022;-73
2023/01/30 12:36:35;;;;;;;4.88;2.50;;;;;;;;;;4972952;28;20033;-72
2023/01/30 12:39:01;;;;;;;2.95;2.42;;;;;;;;;;4972893;28;20030;-72
2023/01/30 12:41:45;;;;;;;4.10;2.20;;;;;;;;;;4972910;28;20023;-73
2023/01/30 12:44:22;;;;;;;4.75;2.28;;;;;;;;;;4973369;28;20019;-72
2023/01/30 12:47:02;;;;;;;3.75;2.63;;;;;;;;;;4971430;28;20050;-72
2023/01/30 12:49:46;;;;;;;2.63;2.17;;;;;;;;;;4972915;28;20508;-73
2023/01/30 12:52:26;;;;;;;3.83;2.60;;;;;;;;;;4972745;28;20520;-72
2023/01/30 12:54:52;;;;;;;2.83;2.08;;;;;;;;;;4973162;28;20054;-71
2023/01/30 12:57:25;;;;;;;4.05;2.47;;;;;;;;;;4972840;28;20326;-72
2023/01/30 13:00:14;;;;;;;3.45;2.80;;;;;;;;;;4972933;28;20027;-71
2023/01/30 13:02:49;;;;;;;4.88;2.80;;;;;;;;;;4967181;28;20035;-72
2023/01/30 13:05:20;;;;;;;4.22;2.85;;;;;;;;;;4972910;28;20169;-71
2023/01/30 13:08:05;;;;;;;4.07;2.42;;;;;;;;;;4972732;28;20074;-73
2023/01/30 13:10:34;;;;;;;5.63;3.22;;;;;;;;;;4971743;28;20401;-72
2023/01/30 13:13:00;;;;;;;5.50;3.10;;;;;;;;;;4972875;28;20019;-71
2023/01/30 13:15:32;;;;;;;6.63;2.90;;;;;;;;;;4972752;28;20557;-72
2023/01/30 13:18:03;;;;;;;6.40;3.08;;;;;;;;;;4971312;28;20114;-72
2023/01/30 13:20:43;;;;;;;4.93;2.58;;;;;;;;;;4972911;28;20034;-73
2023/01/30 13:23:17;;;;;;;5.15;2.63;;;;;;;;;;4972761;28;20047;-72
2023/01/30 13:25:46;;;;;;;4.25;2.25;;;;;;;;;;4972666;28;20310;-72
2023/01/30 13:28:20;;;;;;;5.93;3.13;;;;;;;;;;4970734;28;20035;-73
2023/01/30 13:30:48;;;;;;;5.55;2.55;;;;;;;;;;4972509;28;20023;-72
2023/01/30 13:33:30;;;;;;;5.20;2.53;;;;;;;;;;4972608;28;20553;-72
2023/01/30 13:36:01;;;;;;;3.53;2.72;;;;;;;;;;4972308;28;20133;-71
2023/01/30 13:38:29;;;;;;;5.28;2.28;;;;;;;;;;4972208;28;20125;-73
2023/01/30 13:40:58;;;;;;;6.00;3.08;;;;;;;;;;4972377;28;20501;-73
2023/01/30 13:43:50;;;;;;;4.10;2.22;;;;;;;;;;4972585;28;20449;-72
2023/01/30 13:46:25;;;;;;;4.60;1.90;;;;;;;;;;4970457;28;20102;-72
2023/01/30 13:49:06;;;;;;;7.07;2.30;;;;;;;;;;4972440;28;20431;-73
2023/01/30 13:51:32;;;;;;;2.42;1.73;;;;;;;;;;4972454;28;20033;-74
2023/01/30 13:54:16;;;;;;;4.50;1.83;;;;;;;;;;4971249;28;20030;-72
2023/01/30 13:56:50;;;;;;;7.07;2.28;;;;;;;;;;4971992;28;20118;-71
2023/01/30 13:59:25;;;;;;;4.30;1.65;;;;;;;;;;4972129;28;20023;-73
2023/01/30 14:02:03;;;;;;;5.68;2.83;;;;;;;;;;4970864;28;20023;-72
2023/01/30 14:04:36;;;;;;;5.47;2.42;;;;;;;;;;4972150;28;20027;-72
2023/01/30 14:07:12;;;;;;;4.25;2.70;;;;;;;;;;4975105;28;20046;-71
2023/01/30 14:09:42;;;;;;;5.55;2.42;;;;;;;;;;4969390;28;20036;-73
2023/01/30 14:12:17;;;;;;;5.80;2.22;;;;;;;;;;4955047;28;20031;-73
2023/01/30 14:14:56;;;;;;;5.57;2.38;;;;;;;;;;4971755;28;20031;-73
2023/01/30 14:17:22;;;;;;;6.20;2.17;;;;;;;;;;4974528;28;20023;-71
2023/01/30 14:19:48;;;;;;;6.22;2.22;;;;;;;;;;4975908;28;20023;-71
2023/01/30 14:22:25;;;;;;;5.00;2.50;;;;;;;;;;4974304;28;20029;-72
2023/01/30 14:25:09;;;;;;;6.63;2.13;;;;;;;;;;4975562;28;20034;-72
2023/01/30 14:27:35;;;;;;;7.35;2.55;;;;;;;;;;4975188;28;20045;-72
2023/01/30 14:30:01;;;;;;;7.38;2.47;;;;;;;;;;4975830;28;20034;-73
2023/01/30 14:32:35;;;;;;;5.25;2.28;;;;;;;;;;4975637;28;20051;-72
2023/01/30 14:35:04;;;;;;;7.15;2.15;;;;;;;;;;4975300;28;20023;-72
2023/01/30 14:37:30;;;;;;;6.28;2.25;;;;;;;;;;4974928;28;20026;-72
2023/01/30 14:39:58;;;;;;;4.20;1.92;;;;;;;;;;4975240;28;20366;-71
2023/01/30 14:42:26;;;;;;;4.20;2.20;;;;;;;;;;4975197;28;20015;-69
2023/01/30 14:44:55;;;;;;;6.32;2.95;;;;;;;;;;4975938;28;20133;-71
2023/01/30 14:47:22;;;;;;;4.05;2.03;;;;;;;;;;4974996;28;20046;-72
2023/01/30 14:49:48;;;;;;;5.35;2.13;;;;;;;;;;4975549;28;20022;-70
2023/01/30 14:52:37;;;;;;;5.25;2.20;;;;;;;;;;4975220;28;20126;-70
2023/01/30 14:55:04;;;;;;;5.70;2.40;;;;;;;;;;4966321;28;20035;-71